Terminal Aerodrome Forecast
Issued by NWS

Home | Current Version | Previous Version | Text Only | Print | Product List | Glossary On
Versions: 1 2 3 4 5 6 7 8 9 10 11 12 13 14 15 16 17 18 19
000
FTUS45 KTFX 221100
TAFLWT
TAF
KLWT 221134Z 2212/2312 08006KT 5SM -RA BR OVC002
     FM221600 08006KT P6SM VCSH SCT005 OVC012
     FM222100 07006KT P6SM -RA OVC012
     FM230300 07010KT 2SM -RA OVC002=

USA.gov is the U.S. government's official web portal to all federal, state and local government web resources and services.